Time;durP1;ratioP1;P1;durP2;ratioP2;P2;SDS_P1;SDS_P2;PMS_P1;PMS_P2;Temp;Humidity;BMP_temperature;BMP_pressure;BME280_temperature;BME280_humidity;BME280_pressure;Samples;Min_cycle;Max_cycle;Signal;HPM_P1;HPM_P2
2022/11/27 00:01:10;;;;;;;11.45;5.63;;;5.00;99.90;;;;;;5051566;28;20218;-46
2022/11/27 00:03:36;;;;;;;16.15;5.53;;;5.00;99.90;;;;;;5051616;28;20232;-46
2022/11/27 00:06:02;;;;;;;13.30;5.43;;;5.00;99.90;;;;;;5051734;28;20626;-46
2022/11/27 00:08:27;;;;;;;13.45;5.68;;;5.00;99.90;;;;;;5052075;28;20167;-46
2022/11/27 00:10:53;;;;;;;13.80;6.38;;;5.10;99.90;;;;;;5051627;28;20693;-46
2022/11/27 00:13:18;;;;;;;14.02;5.00;;;5.00;99.90;;;;;;5051596;28;20670;-45
2022/11/27 00:15:44;;;;;;;13.77;4.70;;;5.00;99.90;;;;;;5051494;28;20190;-47
2022/11/27 00:18:10;;;;;;;18.00;6.63;;;5.00;99.90;;;;;;5051553;28;20248;-46
2022/11/27 00:20:35;;;;;;;27.40;10.10;;;5.00;99.90;;;;;;5051587;28;20249;-46
2022/11/27 00:23:01;;;;;;;15.18;6.90;;;5.00;99.90;;;;;;5051533;28;20649;-46
2022/11/27 00:25:27;;;;;;;13.43;5.65;;;5.00;99.90;;;;;;5051860;28;20163;-46
2022/11/27 00:27:53;;;;;;;17.83;6.78;;;5.10;99.90;;;;;;5033614;28;20648;-46
2022/11/27 00:30:18;;;;;;;13.10;5.05;;;5.10;99.90;;;;;;5051602;28;20194;-46
2022/11/27 00:32:44;;;;;;;17.23;8.50;;;5.00;99.90;;;;;;5055480;28;20163;-46
2022/11/27 00:35:10;;;;;;;12.98;6.13;;;5.10;99.90;;;;;;5055382;28;20534;-46
2022/11/27 00:37:35;;;;;;;17.98;7.75;;;5.10;99.90;;;;;;5055408;28;20264;-46
2022/11/27 00:40:01;;;;;;;18.02;9.18;;;5.10;99.90;;;;;;5055458;28;20162;-46
2022/11/27 00:42:27;;;;;;;17.88;8.10;;;5.10;99.90;;;;;;5055711;28;20166;-46
2022/11/27 00:44:52;;;;;;;25.05;13.60;;;5.10;99.90;;;;;;5037417;28;20228;-46
2022/11/27 00:47:18;;;;;;;24.90;12.38;;;5.00;99.90;;;;;;5055216;28;20178;-46
2022/11/27 00:49:45;;;;;;;30.52;18.05;;;5.10;99.90;;;;;;5055183;28;20228;-46
2022/11/27 00:52:11;;;;;;;18.92;9.68;;;5.00;99.90;;;;;;5055301;28;20231;-46
2022/11/27 00:54:36;;;;;;;26.35;9.63;;;5.10;99.90;;;;;;5055298;28;20577;-46
2022/11/27 00:57:02;;;;;;;14.60;7.40;;;5.00;99.90;;;;;;5054958;28;20698;-46
2022/11/27 00:59:28;;;;;;;11.95;5.10;;;5.10;99.90;;;;;;5055551;28;20581;-46
2022/11/27 01:01:53;;;;;;;12.40;4.82;;;5.10;99.90;;;;;;5054551;28;20257;-46
2022/11/27 01:04:19;;;;;;;11.60;3.63;;;5.00;99.90;;;;;;5054554;28;20232;-46
2022/11/27 01:06:45;;;;;;;14.85;4.20;;;5.10;99.90;;;;;;5054737;28;20170;-46
2022/11/27 01:09:12;;;;;;;13.48;3.83;;;5.10;99.90;;;;;;5055026;28;20237;-46
2022/11/27 01:11:39;;;;;;;10.73;3.53;;;5.10;99.90;;;;;;5054994;28;20228;-46
2022/11/27 01:14:09;;;;;;;15.50;3.78;;;5.20;99.90;;;;;;5054832;28;20529;-46
2022/11/27 01:16:36;;;;;;;9.43;4.63;;;5.20;99.90;;;;;;5054321;28;20630;-47
2022/11/27 01:19:03;;;;;;;9.02;3.50;;;5.20;99.90;;;;;;5054546;28;20602;-46
2022/11/27 01:21:31;;;;;;;9.38;3.97;;;5.10;99.90;;;;;;5055122;28;20232;-46
2022/11/27 01:23:57;;;;;;;7.88;3.45;;;5.20;99.90;;;;;;5055139;28;20170;-46
2022/11/27 01:26:24;;;;;;;8.77;4.13;;;5.10;99.90;;;;;;5054414;28;20253;-46
2022/11/27 01:28:52;;;;;;;12.90;4.05;;;5.10;99.90;;;;;;5054401;28;20163;-46
2022/11/27 01:31:20;;;;;;;10.10;4.20;;;5.10;99.90;;;;;;5054376;28;20245;-46
2022/11/27 01:33:46;;;;;;;11.85;4.13;;;5.10;99.90;;;;;;5054348;28;20210;-46
2022/11/27 01:36:14;;;;;;;14.43;4.53;;;5.20;99.90;;;;;;5054210;28;20234;-46
2022/11/27 01:38:40;;;;;;;6.72;4.07;;;5.10;99.90;;;;;;5054503;28;20174;-46
2022/11/27 01:41:07;;;;;;;12.82;4.43;;;5.20;99.90;;;;;;5054472;28;20261;-46
2022/11/27 01:43:37;;;;;;;11.18;4.30;;;5.10;99.90;;;;;;5053377;28;20220;-47
2022/11/27 01:46:04;;;;;;;9.13;3.65;;;5.10;99.90;;;;;;5054305;28;20181;-46
2022/11/27 01:48:30;;;;;;;9.23;3.95;;;5.10;99.90;;;;;;5054482;28;20162;-46
2022/11/27 01:50:56;;;;;;;14.48;4.68;;;5.10;99.90;;;;;;5054661;28;20626;-47
2022/11/27 01:53:22;;;;;;;13.48;4.40;;;5.10;99.90;;;;;;5053963;28;20297;-46
2022/11/27 01:55:54;;;;;;;7.43;4.03;;;5.10;99.90;;;;;;5053768;28;20243;-46
2022/11/27 01:58:27;;;;;;;12.10;5.45;;;5.10;99.90;;;;;;5053890;28;20635;-46
2022/11/27 02:00:53;;;;;;;11.20;4.40;;;5.10;99.90;;;;;;5053613;28;20223;-46
2022/11/27 02:03:19;;;;;;;9.63;4.38;;;5.10;99.90;;;;;;5053761;28;20186;-46
2022/11/27 02:05:45;;;;;;;7.13;3.63;;;5.10;99.90;;;;;;5053740;28;20167;-47
2022/11/27 02:08:13;;;;;;;9.60;4.65;;;5.10;99.90;;;;;;5053690;28;20650;-46
2022/11/27 02:10:52;;;;;;;9.23;4.13;;;5.10;99.90;;;;;;5053690;28;20171;-46
2022/11/27 02:13:42;;;;;;;12.70;5.30;;;5.00;99.90;;;;;;5053450;28;20208;-46
2022/11/27 02:16:11;;;;;;;12.75;4.32;;;4.90;99.90;;;;;;5052892;28;20207;-46
2022/11/27 02:18:53;;;;;;;12.88;5.00;;;4.90;99.90;;;;;;5053575;28;20177;-46
2022/11/27 02:21:33;;;;;;;13.52;4.15;;;5.00;99.90;;;;;;5053554;28;20171;-48
2022/11/27 02:24:19;;;;;;;9.65;4.00;;;5.00;99.90;;;;;;5053812;28;20174;-47
2022/11/27 02:26:47;;;;;;;14.43;4.45;;;4.90;99.90;;;;;;5053305;28;20163;-46
2022/11/27 02:29:17;;;;;;;10.25;4.72;;;5.00;99.90;;;;;;5053285;28;20167;-46
2022/11/27 02:31:57;;;;;;;17.90;4.72;;;4.90;99.90;;;;;;5053253;28;20167;-46
2022/11/27 02:34:44;;;;;;;13.38;4.57;;;5.00;99.90;;;;;;5053437;28;20171;-46
2022/11/27 02:37:25;;;;;;;10.00;4.57;;;4.90;99.90;;;;;;5053025;28;20199;-46
2022/11/27 02:40:02;;;;;;;10.05;4.72;;;4.90;99.90;;;;;;5053297;28;20170;-46
2022/11/27 02:42:32;;;;;;;10.45;4.30;;;4.90;99.90;;;;;;5053677;28;20193;-46
2022/11/27 02:45:02;;;;;;;9.70;4.85;;;4.90;99.90;;;;;;5053367;28;20220;-46
2022/11/27 02:47:29;;;;;;;9.88;4.63;;;4.90;99.90;;;;;;5053382;28;20232;-46
2022/11/27 02:49:56;;;;;;;11.27;4.60;;;4.90;99.90;;;;;;5052989;28;20170;-46
2022/11/27 02:52:25;;;;;;;9.25;3.92;;;4.90;99.90;;;;;;5052828;28;20516;-45
2022/11/27 02:54:54;;;;;;;8.48;4.78;;;4.90;99.90;;;;;;5051959;28;20179;-46
2022/11/27 02:57:24;;;;;;;8.73;4.38;;;4.90;99.90;;;;;;5052599;28;20198;-46
2022/11/27 02:59:54;;;;;;;14.90;4.47;;;4.80;99.90;;;;;;5052616;28;20166;-46
2022/11/27 03:02:26;;;;;;;12.50;4.63;;;4.90;99.90;;;;;;5053126;28;20194;-46
2022/11/27 03:04:54;;;;;;;10.52;5.30;;;4.90;99.90;;;;;;5052854;28;20185;-45
2022/11/27 03:07:43;;;;;;;11.80;5.30;;;5.00;99.90;;;;;;5052470;28;20167;-46
2022/11/27 03:10:28;;;;;;;14.65;5.15;;;4.80;99.90;;;;;;5052548;28;20162;-46
2022/11/27 03:12:54;;;;;;;12.65;5.18;;;5.00;99.90;;;;;;5052786;28;20638;-46
2022/11/27 03:15:21;;;;;;;13.13;5.72;;;4.90;99.90;;;;;;5052324;28;20181;-46
2022/11/27 03:17:53;;;;;;;18.20;5.43;;;4.90;99.90;;;;;;5052338;28;20186;-46
2022/11/27 03:20:31;;;;;;;16.00;6.20;;;5.00;99.90;;;;;;5052545;28;20534;-46
2022/11/27 03:22:57;;;;;;;11.55;5.50;;;4.90;99.90;;;;;;5052775;28;20163;-46
2022/11/27 03:25:23;;;;;;;14.10;5.20;;;5.00;99.90;;;;;;5052234;28;20572;-46
2022/11/27 03:27:59;;;;;;;12.50;5.75;;;4.90;99.90;;;;;;5052210;28;20174;-46
2022/11/27 03:30:25;;;;;;;14.90;5.97;;;4.90;99.90;;;;;;5052754;28;20170;-46
2022/11/27 03:32:51;;;;;;;16.38;6.15;;;4.90;99.90;;;;;;5052200;28;20575;-47
2022/11/27 03:35:20;;;;;;;19.50;6.28;;;5.00;99.90;;;;;;5052235;28;20503;-46
2022/11/27 03:37:46;;;;;;;22.70;6.90;;;4.90;99.90;;;;;;5052057;28;20243;-46
2022/11/27 03:40:13;;;;;;;14.90;7.43;;;5.00;99.90;;;;;;5052074;28;20163;-46
2022/11/27 03:42:51;;;;;;;15.82;6.95;;;4.90;99.90;;;;;;5052007;28;20167;-46
2022/11/27 03:45:46;;;;;;;13.50;7.10;;;5.00;99.90;;;;;;5051941;28;20155;-46
2022/11/27 03:48:26;;;;;;;13.57;6.35;;;5.00;99.90;;;;;;5051914;28;20167;-45
2022/11/27 03:51:14;;;;;;;13.77;6.88;;;5.00;99.90;;;;;;5051886;28;20166;-46
2022/11/27 03:53:58;;;;;;;17.38;7.38;;;5.00;99.90;;;;;;5051796;28;20167;-46
2022/11/27 03:56:42;;;;;;;15.60;7.00;;;5.00;99.90;;;;;;5051685;28;20206;-45
2022/11/27 03:59:22;;;;;;;15.40;7.38;;;5.00;99.90;;;;;;5051791;28;20166;-45
2022/11/27 04:01:48;;;;;;;15.05;6.60;;;5.10;99.90;;;;;;5051600;28;20301;-45
2022/11/27 04:04:14;;;;;;;16.30;7.88;;;5.10;99.90;;;;;;5051688;28;20167;-46
2022/11/27 04:06:40;;;;;;;20.00;8.40;;;5.00;99.90;;;;;;5051296;28;20176;-46
2022/11/27 04:09:05;;;;;;;22.38;8.20;;;5.10;99.90;;;;;;5051678;28;20194;-46
2022/11/27 04:11:31;;;;;;;14.75;7.55;;;5.10;99.90;;;;;;5033708;28;20178;-45
2022/11/27 04:13:57;;;;;;;17.25;7.60;;;5.00;99.90;;;;;;5052031;28;20175;-46
2022/11/27 04:16:22;;;;;;;20.25;9.02;;;5.10;99.90;;;;;;5051587;28;20205;-45
2022/11/27 04:18:48;;;;;;;16.10;8.18;;;5.10;99.90;;;;;;5051594;28;20246;-46
2022/11/27 04:21:15;;;;;;;16.13;7.80;;;5.10;99.90;;;;;;5051567;28;20170;-47
2022/11/27 04:23:41;;;;;;;17.55;8.63;;;5.10;99.90;;;;;;5051377;28;20543;-46
2022/11/27 04:26:07;;;;;;;17.67;7.32;;;5.10;99.90;;;;;;5051711;28;20173;-46
2022/11/27 04:28:33;;;;;;;20.65;8.80;;;5.10;99.90;;;;;;5051486;28;20167;-46
2022/11/27 04:30:58;;;;;;;15.90;8.30;;;5.10;99.90;;;;;;5052007;28;20170;-46
2022/11/27 04:33:24;;;;;;;14.55;7.72;;;5.20;99.90;;;;;;5051378;28;20167;-46
2022/11/27 04:35:50;;;;;;;18.77;7.53;;;5.20;99.90;;;;;;5051315;28;20198;-46
2022/11/27 04:38:17;;;;;;;20.52;7.40;;;5.10;99.90;;;;;;5051496;28;20177;-46
2022/11/27 04:40:43;;;;;;;16.50;7.90;;;5.10;99.90;;;;;;5051396;28;20250;-46
2022/11/27 04:43:08;;;;;;;19.83;8.18;;;5.10;99.90;;;;;;5051390;28;20604;-46
2022/11/27 04:45:34;;;;;;;14.63;8.23;;;5.10;99.90;;;;;;5051257;28;20163;-45
2022/11/27 04:47:59;;;;;;;15.80;7.85;;;5.20;99.90;;;;;;5051563;28;20171;-47
2022/11/27 04:50:25;;;;;;;15.93;8.35;;;5.10;99.90;;;;;;5051584;28;20637;-46
2022/11/27 04:52:51;;;;;;;18.25;7.68;;;5.10;99.90;;;;;;5051195;28;20534;-45
2022/11/27 04:55:16;;;;;;;13.63;7.70;;;5.10;99.90;;;;;;5051101;28;20170;-46
2022/11/27 04:57:42;;;;;;;13.52;8.05;;;5.10;99.90;;;;;;5051052;28;20174;-46
2022/11/27 05:00:08;;;;;;;18.48;7.65;;;5.20;99.90;;;;;;5051029;28;20220;-46
2022/11/27 05:02:34;;;;;;;16.67;7.88;;;5.20;99.90;;;;;;5051064;28;20178;-47
2022/11/27 05:04:59;;;;;;;15.15;7.40;;;5.20;99.90;;;;;;5051150;28;20641;-46
2022/11/27 05:07:26;;;;;;;16.45;7.13;;;5.20;99.90;;;;;;5051411;28;20174;-46
2022/11/27 05:09:51;;;;;;;12.38;6.22;;;5.20;99.90;;;;;;5051087;28;20530;-46
2022/11/27 05:12:17;;;;;;;21.48;8.38;;;5.20;99.90;;;;;;5051093;28;20217;-46
2022/11/27 05:14:43;;;;;;;14.85;7.60;;;5.20;99.90;;;;;;5050997;28;20171;-46
2022/11/27 05:17:09;;;;;;;18.90;7.90;;;5.20;99.90;;;;;;5050987;28;20237;-46
2022/11/27 05:19:34;;;;;;;15.95;7.13;;;5.20;99.90;;;;;;5054584;28;20167;-46
2022/11/27 05:22:00;;;;;;;18.88;8.15;;;5.10;99.90;;;;;;5054740;28;20228;-46
2022/11/27 05:24:27;;;;;;;10.65;6.88;;;5.10;99.90;;;;;;5054906;28;20229;-46
2022/11/27 05:26:53;;;;;;;13.23;7.88;;;5.20;99.90;;;;;;5054360;28;20162;-46
2022/11/27 05:29:19;;;;;;;16.70;7.28;;;5.20;99.90;;;;;;5053709;28;20170;-46
2022/11/27 05:31:45;;;;;;;17.55;8.75;;;5.20;99.90;;;;;;5073157;28;20180;-46
2022/11/27 05:34:11;;;;;;;12.57;7.30;;;5.20;99.90;;;;;;5066858;28;20171;-46
2022/11/27 05:36:37;;;;;;;14.60;6.82;;;5.20;99.90;;;;;;5052628;28;20206;-46
2022/11/27 05:39:05;;;;;;;16.40;7.88;;;5.20;99.90;;;;;;5035022;28;20633;-46
2022/11/27 05:41:31;;;;;;;17.20;8.07;;;5.30;99.90;;;;;;5052619;28;20166;-46
2022/11/27 05:43:57;;;;;;;12.27;6.78;;;5.20;99.90;;;;;;5052941;28;20167;-46
2022/11/27 05:46:23;;;;;;;20.35;7.65;;;5.10;99.90;;;;;;5052534;28;20170;-47
2022/11/27 05:48:49;;;;;;;16.48;7.72;;;5.20;99.90;;;;;;5052579;28;20246;-49
2022/11/27 05:51:14;;;;;;;13.13;7.10;;;5.20;99.90;;;;;;5034573;28;20206;-47
2022/11/27 05:53:40;;;;;;;13.43;7.40;;;5.20;99.90;;;;;;5052296;28;20253;-46
2022/11/27 05:56:08;;;;;;;16.17;7.75;;;5.20;99.90;;;;;;5034251;28;20210;-46
2022/11/27 05:58:35;;;;;;;17.38;7.18;;;5.20;99.90;;;;;;5052277;28;20653;-46
2022/11/27 06:01:01;;;;;;;14.07;6.88;;;5.20;99.90;;;;;;5052228;28;20297;-46
2022/11/27 06:03:27;;;;;;;15.90;8.32;;;5.20;99.90;;;;;;5052604;28;20255;-45
2022/11/27 06:05:52;;;;;;;15.07;7.07;;;5.20;99.90;;;;;;5052231;28;20193;-46
2022/11/27 06:08:18;;;;;;;17.17;7.82;;;5.20;99.90;;;;;;5052149;28;21073;-46
2022/11/27 06:10:44;;;;;;;15.63;7.70;;;5.20;99.90;;;;;;5051852;28;20521;-46
2022/11/27 06:13:11;;;;;;;13.55;7.13;;;5.20;99.90;;;;;;5052054;28;20166;-47
2022/11/27 06:15:37;;;;;;;11.85;5.88;;;5.30;99.90;;;;;;5051945;28;20541;-46
2022/11/27 06:18:03;;;;;;;9.95;7.07;;;5.30;99.90;;;;;;5052109;28;20189;-45
2022/11/27 06:20:29;;;;;;;15.18;6.93;;;5.30;99.90;;;;;;5051995;28;20174;-46
2022/11/27 06:22:56;;;;;;;14.23;7.00;;;5.30;99.90;;;;;;5052266;28;20224;-47
2022/11/27 06:25:22;;;;;;;12.73;6.63;;;5.30;99.90;;;;;;5052055;28;20224;-47
2022/11/27 06:27:48;;;;;;;14.00;6.90;;;5.30;99.90;;;;;;5051778;28;20170;-48
2022/11/27 06:30:14;;;;;;;13.02;6.57;;;5.30;99.90;;;;;;5051488;28;20194;-46
2022/11/27 06:32:40;;;;;;;14.20;6.70;;;5.40;99.90;;;;;;5051740;28;20202;-47
2022/11/27 06:35:06;;;;;;;18.02;7.05;;;5.20;99.90;;;;;;5051727;28;20173;-47
2022/11/27 06:37:31;;;;;;;14.80;6.60;;;5.30;99.90;;;;;;5051519;28;20214;-48
2022/11/27 06:39:57;;;;;;;15.98;6.88;;;5.30;99.90;;;;;;5052013;28;20166;-46
2022/11/27 06:42:22;;;;;;;13.90;6.07;;;5.30;99.90;;;;;;5051272;28;20182;-46
2022/11/27 06:44:48;;;;;;;9.90;5.93;;;5.30;99.90;;;;;;5051440;28;20171;-46
2022/11/27 06:47:13;;;;;;;12.38;6.15;;;5.30;99.90;;;;;;5051432;28;20178;-46
2022/11/27 06:49:39;;;;;;;11.50;6.47;;;5.30;99.90;;;;;;5051332;28;20171;-45
2022/11/27 06:52:04;;;;;;;12.10;6.85;;;5.20;99.90;;;;;;5051199;28;20626;-45
2022/11/27 06:54:30;;;;;;;10.10;6.63;;;5.30;99.90;;;;;;5033398;28;20626;-46
2022/11/27 06:56:57;;;;;;;13.85;6.50;;;5.30;99.90;;;;;;5051486;28;20210;-47
2022/11/27 06:59:22;;;;;;;9.63;5.65;;;5.20;99.90;;;;;;5051155;28;20713;-47
2022/11/27 07:01:48;;;;;;;11.48;6.15;;;5.30;99.90;;;;;;5050937;28;20289;-48
2022/11/27 07:04:15;;;;;;;11.50;5.57;;;5.30;99.90;;;;;;5050488;28;20254;-49
2022/11/27 07:06:41;;;;;;;15.05;6.45;;;5.30;99.90;;;;;;5050908;28;20253;-48
2022/11/27 07:09:07;;;;;;;9.50;6.05;;;5.30;99.90;;;;;;5051041;28;20642;-48
2022/11/27 07:11:33;;;;;;;10.77;5.93;;;5.30;99.90;;;;;;5050848;28;20179;-50
2022/11/27 07:14:01;;;;;;;12.30;6.00;;;5.30;99.90;;;;;;5050727;28;20226;-45
2022/11/27 07:16:30;;;;;;;12.65;6.05;;;5.30;99.90;;;;;;5051053;28;20250;-48
2022/11/27 07:19:02;;;;;;;8.57;5.65;;;5.40;99.90;;;;;;5051157;28;20224;-48
2022/11/27 07:21:28;;;;;;;10.60;5.95;;;5.40;99.90;;;;;;5051093;28;20202;-46
2022/11/27 07:23:55;;;;;;;14.70;5.80;;;5.50;99.90;;;;;;5051163;28;20163;-48
2022/11/27 07:26:22;;;;;;;14.82;6.03;;;5.40;99.90;;;;;;5050653;28;20170;-50
2022/11/27 07:28:48;;;;;;;13.65;5.80;;;5.50;99.90;;;;;;5032552;28;20166;-51
2022/11/27 07:31:20;;;;;;;18.88;5.82;;;5.50;99.90;;;;;;5050674;28;20652;-48
2022/11/27 07:33:46;;;;;;;11.07;5.95;;;5.40;99.90;;;;;;5050863;28;20369;-48
2022/11/27 07:36:18;;;;;;;10.80;5.53;;;5.50;99.90;;;;;;5050276;28;20202;-53
2022/11/27 07:38:44;;;;;;;13.60;5.78;;;5.60;99.90;;;;;;5050288;28;20194;-47
2022/11/27 07:41:11;;;;;;;10.20;5.78;;;5.60;99.90;;;;;;5049896;28;20171;-48
2022/11/27 07:43:37;;;;;;;11.73;6.05;;;5.60;99.90;;;;;;5050452;28;20178;-48
2022/11/27 07:46:04;;;;;;;11.73;6.25;;;5.60;99.90;;;;;;5050281;28;20171;-51
2022/11/27 07:48:30;;;;;;;10.48;5.03;;;5.60;99.90;;;;;;5050097;28;20195;-47
2022/11/27 07:50:55;;;;;;;9.15;5.38;;;5.60;99.90;;;;;;5050561;28;20163;-47
2022/11/27 07:53:21;;;;;;;10.65;5.97;;;5.70;99.90;;;;;;5050281;28;20167;-48
2022/11/27 07:55:46;;;;;;;14.82;5.63;;;5.60;99.90;;;;;;5050096;28;20191;-47
2022/11/27 07:58:12;;;;;;;11.60;6.93;;;5.70;99.90;;;;;;5050119;28;20638;-47
2022/11/27 08:00:38;;;;;;;11.75;5.50;;;5.70;99.90;;;;;;5032228;28;20218;-48
2022/11/27 08:03:03;;;;;;;11.68;5.65;;;5.70;99.90;;;;;;5049863;28;20178;-53
2022/11/27 08:05:32;;;;;;;9.32;5.28;;;5.80;99.90;;;;;;5049941;28;20167;-49
2022/11/27 08:08:00;;;;;;;11.23;5.45;;;5.80;99.90;;;;;;5050271;28;20167;-49
2022/11/27 08:10:25;;;;;;;7.50;4.72;;;5.80;99.90;;;;;;5050029;28;20198;-49
2022/11/27 08:12:51;;;;;;;12.23;5.25;;;5.80;99.90;;;;;;5049994;28;20580;-54
2022/11/27 08:15:17;;;;;;;8.77;5.10;;;5.90;99.90;;;;;;5049934;28;20170;-54
2022/11/27 08:17:42;;;;;;;7.82;4.57;;;6.00;99.90;;;;;;5050072;28;20214;-52
2022/11/27 08:20:08;;;;;;;7.18;4.47;;;6.10;99.90;;;;;;5051786;28;20518;-48
2022/11/27 08:22:34;;;;;;;6.35;4.75;;;6.10;99.90;;;;;;5061155;28;20633;-53
2022/11/27 08:24:59;;;;;;;8.35;4.97;;;6.10;99.90;;;;;;5069862;28;20166;-51
2022/11/27 08:27:25;;;;;;;7.03;4.28;;;6.20;99.90;;;;;;5052055;28;20173;-52
2022/11/27 08:29:50;;;;;;;7.22;4.55;;;6.30;99.90;;;;;;5069590;28;20174;-49
2022/11/27 08:32:16;;;;;;;8.25;4.65;;;6.40;99.90;;;;;;5069817;28;20174;-52
2022/11/27 08:34:42;;;;;;;7.03;4.53;;;6.40;99.90;;;;;;5069865;28;20560;-50
2022/11/27 08:37:07;;;;;;;5.15;4.07;;;6.40;99.90;;;;;;5069701;28;20678;-53
2022/11/27 08:39:33;;;;;;;8.35;4.30;;;6.40;99.90;;;;;;5069695;28;20581;-49
2022/11/27 08:41:59;;;;;;;7.00;4.60;;;6.50;99.90;;;;;;5069492;28;20170;-51
2022/11/27 08:44:24;;;;;;;9.77;4.88;;;6.50;99.90;;;;;;5069818;28;20200;-50
2022/11/27 08:46:50;;;;;;;7.18;4.50;;;6.60;99.90;;;;;;5069672;28;20174;-50
2022/11/27 08:49:15;;;;;;;7.88;3.88;;;6.50;99.90;;;;;;5069785;28;20174;-51
2022/11/27 08:51:41;;;;;;;8.57;4.78;;;6.60;99.90;;;;;;5070112;28;20221;-49
2022/11/27 08:54:07;;;;;;;7.68;4.03;;;6.60;99.90;;;;;;5073085;28;20173;-50
2022/11/27 08:56:32;;;;;;;7.03;4.13;;;6.60;99.90;;;;;;5073510;28;20223;-54
2022/11/27 08:58:58;;;;;;;8.13;4.53;;;6.70;99.90;;;;;;5073405;28;20158;-50
2022/11/27 09:01:27;;;;;;;6.88;3.90;;;6.70;99.90;;;;;;5073740;28;20700;-49
2022/11/27 09:03:53;;;;;;;6.55;3.85;;;6.70;99.90;;;;;;5073877;28;20176;-50
2022/11/27 09:06:25;;;;;;;7.05;4.30;;;6.70;99.90;;;;;;5072938;28;20241;-49
2022/11/27 09:08:50;;;;;;;9.90;4.85;;;6.70;99.90;;;;;;5073318;28;20699;-52
2022/11/27 09:11:18;;;;;;;7.32;4.35;;;6.80;99.90;;;;;;5073192;28;20197;-51
2022/11/27 09:13:44;;;;;;;9.38;4.22;;;6.80;99.90;;;;;;5073182;28;20239;-53
2022/11/27 09:16:12;;;;;;;8.35;4.32;;;6.90;99.90;;;;;;5073060;28;20208;-51
2022/11/27 09:18:39;;;;;;;13.98;5.03;;;6.90;99.90;;;;;;5073106;28;20174;-49
2022/11/27 09:21:07;;;;;;;5.97;4.70;;;7.00;99.90;;;;;;5073107;28;20168;-48
2022/11/27 09:23:33;;;;;;;11.35;5.07;;;7.00;99.90;;;;;;5073005;28;20166;-50
2022/11/27 09:26:06;;;;;;;8.52;4.60;;;7.00;99.90;;;;;;5072774;28;20197;-51
2022/11/27 09:28:32;;;;;;;12.13;4.70;;;7.10;99.90;;;;;;5072525;28;20188;-51
2022/11/27 09:31:02;;;;;;;7.88;4.57;;;7.20;99.90;;;;;;5072869;28;20253;-53
2022/11/27 09:33:29;;;;;;;10.68;5.72;;;7.30;99.90;;;;;;5072825;28;20192;-48
2022/11/27 09:35:55;;;;;;;10.60;5.15;;;7.30;99.90;;;;;;5072988;28;20608;-55
2022/11/27 09:38:22;;;;;;;10.20;5.75;;;7.30;99.90;;;;;;5072693;28;20204;-53
2022/11/27 09:40:54;;;;;;;5.90;4.70;;;7.40;99.90;;;;;;5072687;28;20253;-55
2022/11/27 09:43:28;;;;;;;9.38;4.55;;;7.40;99.90;;;;;;5072614;28;20239;-54
2022/11/27 09:46:00;;;;;;;7.20;4.60;;;7.40;99.90;;;;;;5072937;28;20165;-49
2022/11/27 09:48:36;;;;;;;9.57;4.82;;;7.40;99.90;;;;;;5072830;28;20614;-54
2022/11/27 09:51:15;;;;;;;7.90;4.70;;;7.40;99.90;;;;;;5072394;28;20184;-50
2022/11/27 09:53:46;;;;;;;9.15;4.85;;;7.40;99.90;;;;;;5072063;28;20249;-52
2022/11/27 09:56:15;;;;;;;13.68;5.90;;;7.40;99.90;;;;;;5072116;28;20208;-49
2022/11/27 09:58:44;;;;;;;9.77;5.75;;;7.40;99.90;;;;;;5072205;28;20181;-50
2022/11/27 10:01:15;;;;;;;6.68;4.47;;;7.50;99.90;;;;;;5071976;28;20649;-54
2022/11/27 10:03:42;;;;;;;9.80;5.32;;;7.50;99.90;;;;;;5070796;28;20226;-48
2022/11/27 10:06:36;;;;;;;6.60;4.95;;;7.50;99.90;;;;;;5071746;28;20796;-52
2022/11/27 10:09:36;;;;;;;9.27;4.90;;;7.50;99.90;;;;;;5071930;28;20166;-56
2022/11/27 10:12:16;;;;;;;8.18;4.95;;;7.50;99.90;;;;;;5072028;28;20672;-51
2022/11/27 10:15:09;;;;;;;8.70;4.80;;;7.50;99.90;;;;;;5071546;28;20578;-51
2022/11/27 10:17:47;;;;;;;7.30;4.25;;;7.50;99.90;;;;;;5071480;28;20237;-48
2022/11/27 10:20:27;;;;;;;9.48;4.63;;;7.60;99.90;;;;;;5071737;28;20166;-51
2022/11/27 10:23:01;;;;;;;6.32;4.20;;;7.60;99.90;;;;;;5072032;28;20196;-53
2022/11/27 10:25:48;;;;;;;8.45;3.83;;;7.60;99.90;;;;;;5072259;28;20162;-51
2022/11/27 10:28:56;;;;;;;8.02;4.65;;;7.60;99.90;;;;;;5071412;28;20695;-48
2022/11/27 10:31:34;;;;;;;5.45;4.38;;;7.60;99.90;;;;;;5066509;28;20269;-47
2022/11/27 10:34:19;;;;;;;7.13;4.38;;;7.70;99.90;;;;;;5071144;28;20530;-45
2022/11/27 10:36:48;;;;;;;6.18;4.50;;;7.70;99.90;;;;;;5071274;28;20669;-45
2022/11/27 10:39:24;;;;;;;9.73;4.97;;;7.70;99.90;;;;;;5071618;28;20162;-45
2022/11/27 10:41:58;;;;;;;10.93;5.03;;;7.70;99.90;;;;;;5071629;28;20181;-46
2022/11/27 10:44:33;;;;;;;5.65;4.10;;;7.70;99.90;;;;;;5071630;28;20165;-46
2022/11/27 10:47:06;;;;;;;8.73;4.35;;;7.70;99.90;;;;;;5071240;28;20687;-45
2022/11/27 10:49:34;;;;;;;12.43;6.32;;;7.70;99.90;;;;;;5071305;28;20210;-51
2022/11/27 10:51:59;;;;;;;7.53;4.40;;;7.70;99.90;;;;;;5053634;28;20614;-49
2022/11/27 10:54:33;;;;;;;8.32;4.53;;;7.70;99.90;;;;;;5071311;28;20154;-49
2022/11/27 10:57:07;;;;;;;16.65;7.88;;;7.70;99.90;;;;;;5071233;28;20198;-49
2022/11/27 10:59:45;;;;;;;7.70;4.70;;;7.70;99.90;;;;;;5071108;28;20239;-49
2022/11/27 11:02:30;;;;;;;13.23;6.88;;;7.80;99.90;;;;;;5071125;28;20189;-49
2022/11/27 11:04:55;;;;;;;10.77;6.15;;;7.90;99.90;;;;;;5071462;28;20178;-49
2022/11/27 11:07:27;;;;;;;11.13;5.20;;;7.80;99.90;;;;;;5052948;28;20547;-48
2022/11/27 11:09:54;;;;;;;14.45;8.60;;;7.80;99.90;;;;;;5070839;28;20170;-49
2022/11/27 11:12:22;;;;;;;7.95;5.32;;;7.80;99.90;;;;;;5071029;28;20178;-47
2022/11/27 11:14:57;;;;;;;9.43;5.75;;;7.80;99.90;;;;;;5052689;28;20586;-52
2022/11/27 11:17:36;;;;;;;10.35;5.57;;;7.90;99.90;;;;;;5035961;28;20209;-50
2022/11/27 11:20:22;;;;;;;8.88;4.93;;;7.80;99.90;;;;;;5053141;28;20322;-52
2022/11/27 11:22:48;;;;;;;8.85;5.60;;;7.80;99.90;;;;;;5069261;28;20249;-51
2022/11/27 11:25:19;;;;;;;8.55;5.78;;;7.80;99.90;;;;;;5070120;28;20178;-52
2022/11/27 11:27:46;;;;;;;10.88;6.45;;;7.80;99.90;;;;;;5070483;28;20622;-59
2022/11/27 11:30:25;;;;;;;10.10;6.50;;;7.90;99.90;;;;;;5070307;28;20174;-55
2022/11/27 11:32:58;;;;;;;11.13;6.53;;;7.90;99.90;;;;;;5070403;28;20216;-53
2022/11/27 11:35:34;;;;;;;11.70;6.65;;;7.90;99.90;;;;;;5070606;28;20259;-50
2022/11/27 11:38:03;;;;;;;13.88;9.38;;;7.90;99.90;;;;;;5070541;28;20561;-55
2022/11/27 11:40:31;;;;;;;8.90;6.15;;;8.00;99.90;;;;;;5070033;28;20193;-54
2022/11/27 11:42:59;;;;;;;13.43;7.13;;;8.00;99.90;;;;;;5070263;28;20596;-53
2022/11/27 11:45:27;;;;;;;10.68;6.80;;;8.00;99.90;;;;;;5070499;28;20162;-54
2022/11/27 11:47:58;;;;;;;10.50;6.00;;;8.00;99.90;;;;;;5070127;28;20158;-56
2022/11/27 11:50:44;;;;;;;11.95;5.72;;;8.10;99.90;;;;;;5070387;28;20540;-58
2022/11/27 11:53:14;;;;;;;8.82;6.22;;;8.10;99.90;;;;;;5069847;28;20154;-60
2022/11/27 11:56:16;;;;;;;13.63;6.18;;;8.10;99.90;;;;;;5070092;28;20224;-56
2022/11/27 11:59:17;;;;;;;13.30;6.05;;;8.20;99.90;;;;;;5070081;28;20173;-53
2022/11/27 12:02:07;;;;;;;12.20;6.28;;;8.20;99.90;;;;;;5069625;28;20237;-52
2022/11/27 12:04:41;;;;;;;7.50;5.45;;;8.30;99.90;;;;;;5069839;28;20166;-57
2022/11/27 12:07:15;;;;;;;11.55;7.20;;;8.30;99.90;;;;;;5069855;28;20173;-53
2022/11/27 12:09:53;;;;;;;10.98;6.93;;;8.30;99.90;;;;;;5070539;28;20648;-48
2022/11/27 12:12:40;;;;;;;9.07;6.20;;;8.30;99.90;;;;;;5070033;28;20161;-51
2022/11/27 12:15:26;;;;;;;8.77;5.80;;;8.40;99.90;;;;;;5070162;28;20173;-50
2022/11/27 12:18:06;;;;;;;10.27;5.45;;;8.40;99.90;;;;;;5069784;28;20212;-53
2022/11/27 12:20:43;;;;;;;10.50;5.50;;;8.40;99.90;;;;;;5069790;28;20173;-50
2022/11/27 12:23:48;;;;;;;8.05;5.00;;;8.40;99.90;;;;;;5070027;28;20185;-48
2022/11/27 12:26:23;;;;;;;10.88;5.03;;;8.40;99.90;;;;;;5068880;28;20575;-47
2022/11/27 12:29:26;;;;;;;9.02;5.40;;;8.40;99.90;;;;;;5073817;28;20162;-50
2022/11/27 12:32:21;;;;;;;10.98;5.15;;;8.40;99.90;;;;;;5073503;28;20177;-48
2022/11/27 12:34:55;;;;;;;10.07;5.20;;;8.50;99.90;;;;;;5073610;28;20524;-46
2022/11/27 12:37:38;;;;;;;9.52;5.38;;;8.50;99.90;;;;;;5073299;28;20201;-46
2022/11/27 12:40:32;;;;;;;8.40;5.43;;;8.50;99.90;;;;;;5073516;28;20161;-46
2022/11/27 12:43:06;;;;;;;9.32;4.78;;;8.50;99.90;;;;;;5073638;28;20177;-47
2022/11/27 12:45:43;;;;;;;14.25;7.25;;;8.50;99.90;;;;;;5073152;28;20205;-48
2022/11/27 12:48:20;;;;;;;9.70;5.78;;;8.50;99.90;;;;;;5073540;28;20544;-47
2022/11/27 12:51:04;;;;;;;7.55;4.75;;;8.50;99.90;;;;;;5072453;28;20158;-51
2022/11/27 12:53:49;;;;;;;9.35;4.95;;;8.50;99.90;;;;;;5073414;28;20170;-51
2022/11/27 12:56:39;;;;;;;8.32;4.25;;;8.50;99.90;;;;;;5073275;28;20518;-51
2022/11/27 12:59:42;;;;;;;10.07;5.40;;;8.50;99.90;;;;;;5055540;28;20165;-51
2022/11/27 13:02:08;;;;;;;7.53;4.47;;;8.60;99.90;;;;;;4972128;28;20268;-50
2022/11/27 13:04:54;;;;;;;6.13;4.40;;;8.60;99.90;;;;;;5053675;28;20297;-48
2022/11/27 13:07:26;;;;;;;8.35;5.45;;;8.60;99.90;;;;;;5073128;28;20205;-53